createdAt,value
2023-01-06T00:00:03.758Z,95123.38
2023-01-06T00:01:18.841Z,95045.78
2023-01-06T00:02:15.751Z,95088.19
2023-01-06T00:03:12.620Z,95114.47
2023-01-06T00:04:09.496Z,95116.72
2023-01-06T00:05:06.678Z,95133.06
2023-01-06T00:06:06.437Z,95068.84
2023-01-06T00:07:03.179Z,94998.78
2023-01-06T00:08:00.162Z,95097.13
2023-01-06T00:09:00.781Z,95126.63
2023-01-06T00:09:57.578Z,94973.13
2023-01-06T00:10:55.010Z,95108.03
2023-01-06T00:11:51.857Z,94921.31
2023-01-06T00:12:49.839Z,95038.91
2023-01-06T00:13:46.697Z,95137.53
2023-01-06T00:14:44.311Z,95092.88
2023-01-06T00:15:41.175Z,94986.84
2023-01-06T00:16:38.067Z,95125.78
2023-01-06T00:17:34.855Z,95030.03
2023-01-06T00:18:31.709Z,95107.59
2023-01-06T00:19:28.484Z,95157.09
2023-01-06T00:20:25.302Z,95160.16
2023-01-06T00:21:22.716Z,95119.34
2023-01-06T00:22:22.370Z,95062.97
2023-01-06T00:23:19.158Z,95128.44
2023-01-06T00:24:15.945Z,95151.66
2023-01-06T00:25:12.722Z,95145.19
2023-01-06T00:26:10.950Z,94826.00
2023-01-06T00:27:07.890Z,95165.00
2023-01-06T00:28:04.799Z,95169.44
2023-01-06T00:29:03.651Z,95152.06
2023-01-06T00:30:00.425Z,95110.44
2023-01-06T00:30:57.289Z,95050.25
2023-01-06T00:31:54.512Z,95166.22
2023-01-06T00:32:51.673Z,95026.81
2023-01-06T00:33:48.906Z,95079.28
2023-01-06T00:34:45.850Z,95093.00
2023-01-06T00:35:42.722Z,95146.78
2023-01-06T00:36:39.518Z,95080.53
2023-01-06T00:37:36.436Z,95151.66
2023-01-06T00:38:33.252Z,95074.09
2023-01-06T00:39:30.094Z,95108.81
2023-01-06T00:40:26.947Z,95157.31
2023-01-06T00:41:42.908Z,95137.09
2023-01-06T00:42:39.726Z,95075.69
2023-01-06T00:43:36.475Z,95163.00
2023-01-06T00:44:35.423Z,95187.69
2023-01-06T00:45:32.339Z,95105.19
2023-01-06T00:46:31.394Z,95140.34
2023-01-06T00:47:28.251Z,95042.38
2023-01-06T00:48:25.050Z,95130.03
2023-01-06T00:49:22.113Z,95167.44
2023-01-06T00:50:18.974Z,95151.66
2023-01-06T00:51:15.840Z,95166.03
2023-01-06T00:52:13.399Z,94988.88
2023-01-06T00:53:10.271Z,95130.00
2023-01-06T00:54:12.698Z,95112.44
2023-01-06T00:55:10.127Z,95118.47
2023-01-06T00:56:07.414Z,95165.81
2023-01-06T00:57:06.902Z,95155.44
2023-01-06T00:58:03.670Z,95126.81
2023-01-06T00:59:03.005Z,95129.44
2023-01-06T00:59:59.809Z,95165.16
2023-01-06T01:00:56.586Z,95153.84
2023-01-06T01:01:56.682Z,95131.00
2023-01-06T01:02:53.572Z,95152.00
2023-01-06T01:03:50.377Z,95110.00
2023-01-06T01:04:47.178Z,95185.75
2023-01-06T01:05:43.920Z,95097.88
2023-01-06T01:06:46.171Z,95182.75
2023-01-06T01:07:43.022Z,95084.94
2023-01-06T01:08:39.801Z,95172.59
2023-01-06T01:09:36.749Z,95190.88
2023-01-06T01:10:33.568Z,95175.75
2023-01-06T01:11:49.112Z,95120.94
2023-01-06T01:12:45.884Z,95172.25
2023-01-06T01:13:42.648Z,95119.50
2023-01-06T01:14:48.544Z,95122.94
2023-01-06T01:15:45.297Z,95103.97
2023-01-06T01:16:42.317Z,95007.03
2023-01-06T01:17:41.104Z,94990.50
2023-01-06T01:18:37.916Z,95157.28
2023-01-06T01:19:36.342Z,95036.06
2023-01-06T01:20:33.946Z,95033.66
2023-01-06T01:21:31.286Z,95155.44
2023-01-06T01:22:30.883Z,95152.22
2023-01-06T01:23:27.752Z,95170.06
2023-01-06T01:24:24.659Z,95154.06
2023-01-06T01:25:21.473Z,95150.38
2023-01-06T01:26:18.243Z,95107.97
2023-01-06T01:27:15.352Z,95025.59
2023-01-06T01:28:12.191Z,95171.88
2023-01-06T01:29:12.531Z,95015.28
2023-01-06T01:30:09.827Z,95169.41
2023-01-06T01:31:06.688Z,95036.06
2023-01-06T01:32:04.729Z,95191.66
2023-01-06T01:33:01.516Z,95159.72
2023-01-06T01:33:58.399Z,95196.72
2023-01-06T01:34:55.150Z,95165.19
2023-01-06T01:35:51.956Z,95178.38
2023-01-06T01:36:51.692Z,95158.72
2023-01-06T01:37:48.438Z,94987.06
2023-01-06T01:38:45.626Z,95071.22
2023-01-06T01:39:43.196Z,95156.94
2023-01-06T01:40:47.625Z,95134.06
2023-01-06T01:41:44.804Z,95104.53
2023-01-06T01:42:41.627Z,95126.16
2023-01-06T01:43:53.848Z,95143.97
2023-01-06T01:44:57.835Z,95127.06
2023-01-06T01:45:56.239Z,95038.91
2023-01-06T01:46:53.148Z,95107.19
2023-01-06T01:48:03.676Z,94962.41
2023-01-06T01:49:06.933Z,95127.38
2023-01-06T01:50:18.550Z,95104.72
2023-01-06T01:51:22.008Z,95126.56
2023-01-06T01:52:21.435Z,95074.88
2023-01-06T01:53:30.041Z,95074.00
2023-01-06T01:54:31.849Z,95131.03
2023-01-06T01:55:31.339Z,95099.09
2023-01-06T01:56:33.023Z,95043.53
2023-01-06T01:57:58.053Z,95066.94
2023-01-06T01:59:00.589Z,95131.84
2023-01-06T01:59:59.669Z,95031.41
2023-01-06T02:00:56.687Z,95128.56
2023-01-06T02:01:54.722Z,95052.19
2023-01-06T02:02:51.900Z,95095.06
2023-01-06T02:03:49.842Z,95156.44
2023-01-06T02:04:54.282Z,95133.03
2023-01-06T02:05:57.819Z,94960.34
2023-01-06T02:06:55.964Z,94947.03
2023-01-06T02:07:54.834Z,95131.75
2023-01-06T02:09:13.167Z,95128.59
2023-01-06T02:10:19.043Z,95134.56
2023-01-06T02:11:16.144Z,95167.13
2023-01-06T02:12:13.104Z,95152.38
2023-01-06T02:13:10.163Z,95104.53
2023-01-06T02:14:18.306Z,95126.09
2023-01-06T02:15:19.676Z,95120.41
2023-01-06T02:16:30.305Z,95169.03
2023-01-06T02:18:09.993Z,95149.63
2023-01-06T02:19:32.943Z,95122.28
2023-01-06T02:20:38.636Z,95149.88
2023-01-06T02:22:00.962Z,95162.53
2023-01-06T02:23:25.918Z,95166.16
2023-01-06T02:24:58.112Z,95160.13
2023-01-06T02:26:12.991Z,95164.19
2023-01-06T02:27:27.796Z,95166.19
2023-01-06T02:28:39.571Z,95172.66
2023-01-06T02:30:00.640Z,95095.50
2023-01-06T02:31:21.186Z,95172.69
2023-01-06T02:32:36.979Z,95204.03
2023-01-06T02:33:46.167Z,95179.19
2023-01-06T02:35:09.009Z,95167.41
2023-01-06T02:36:44.964Z,95164.56
2023-01-06T02:37:53.504Z,95167.22
2023-01-06T02:39:30.898Z,95140.75
2023-01-06T02:40:54.639Z,95157.25
2023-01-06T02:42:00.345Z,95168.22
2023-01-06T02:43:13.400Z,95168.25
2023-01-06T02:44:28.987Z,95185.63
2023-01-06T02:46:16.538Z,95158.31
2023-01-06T02:47:21.165Z,95124.38
2023-01-06T02:48:51.127Z,95220.41
2023-01-06T02:50:13.873Z,94830.25
2023-01-06T02:51:21.389Z,95169.78
2023-01-06T02:52:44.041Z,95132.25
2023-01-06T02:54:00.212Z,95188.59
2023-01-06T02:55:11.741Z,95169.28
2023-01-06T02:56:10.663Z,95156.38
2023-01-06T02:57:21.002Z,95150.38
2023-01-06T02:58:55.440Z,95159.03
2023-01-06T03:00:03.831Z,95161.09
2023-01-06T03:01:24.847Z,95161.94
2023-01-06T03:02:23.206Z,95158.47
2023-01-06T03:03:25.199Z,95166.19
2023-01-06T03:04:39.149Z,95118.66
2023-01-06T03:05:38.409Z,94976.66
2023-01-06T03:06:44.793Z,95155.03
2023-01-06T03:07:45.411Z,95158.88
2023-01-06T03:08:46.815Z,95096.66
2023-01-06T03:09:46.137Z,95150.97
2023-01-06T03:10:47.275Z,95080.88
2023-01-06T03:11:50.230Z,95139.84
2023-01-06T03:13:00.779Z,95141.13
2023-01-06T03:14:09.975Z,95158.06
2023-01-06T03:15:08.760Z,95053.06
2023-01-06T03:16:06.944Z,95150.88
2023-01-06T03:17:04.401Z,95157.09
2023-01-06T03:18:01.563Z,95144.13
2023-01-06T03:18:58.837Z,95171.44
2023-01-06T03:19:56.237Z,95101.72
2023-01-06T03:20:59.732Z,95149.00
2023-01-06T03:21:59.402Z,95147.63
2023-01-06T03:22:56.814Z,95026.00
2023-01-06T03:23:54.057Z,95075.88
2023-01-06T03:24:51.602Z,95116.47
2023-01-06T03:25:48.426Z,95158.16
2023-01-06T03:26:48.627Z,94996.13
2023-01-06T03:27:45.421Z,95003.41
2023-01-06T03:28:42.280Z,95101.34
2023-01-06T03:29:40.180Z,95182.31
2023-01-06T03:31:12.096Z,95175.53
2023-01-06T03:32:33.494Z,95170.75
2023-01-06T03:33:45.904Z,95180.31
2023-01-06T03:34:55.560Z,95173.47
2023-01-06T03:36:01.089Z,95164.78
2023-01-06T03:37:10.842Z,95164.16
2023-01-06T03:38:41.583Z,95132.22
2023-01-06T03:39:57.097Z,95123.69
2023-01-06T03:41:02.257Z,95144.34
2023-01-06T03:42:35.856Z,95143.16
2023-01-06T03:44:05.096Z,95167.81
2023-01-06T03:45:26.357Z,95052.25
2023-01-06T03:46:37.571Z,95076.53
2023-01-06T03:47:50.170Z,95116.50
2023-01-06T03:48:58.294Z,95158.53
2023-01-06T03:50:18.630Z,95175.53
2023-01-06T03:51:45.665Z,95159.34
2023-01-06T03:52:55.291Z,95096.09
2023-01-06T03:54:18.373Z,95173.31
2023-01-06T03:55:21.142Z,95136.09
2023-01-06T03:56:26.754Z,95127.00
2023-01-06T03:57:33.566Z,95173.88
2023-01-06T03:58:31.297Z,95047.44
2023-01-06T03:59:33.473Z,95169.03
2023-01-06T04:00:37.036Z,95188.47
2023-01-06T04:01:35.121Z,95221.59
2023-01-06T04:02:33.837Z,95087.03
2023-01-06T04:03:31.003Z,95204.44
2023-01-06T04:04:27.973Z,95201.59
2023-01-06T04:05:28.092Z,95185.84
2023-01-06T04:06:25.137Z,95189.66
2023-01-06T04:07:21.952Z,95206.66
2023-01-06T04:08:18.975Z,95007.81
2023-01-06T04:09:15.872Z,95178.34
2023-01-06T04:10:15.863Z,95199.38
2023-01-06T04:11:32.695Z,95139.13
2023-01-06T04:12:41.343Z,95205.44
2023-01-06T04:13:40.354Z,95194.50
2023-01-06T04:14:37.783Z,95197.91
2023-01-06T04:15:34.731Z,95168.59
2023-01-06T04:16:31.663Z,95231.47
2023-01-06T04:17:28.499Z,95204.03
2023-01-06T04:18:25.287Z,95177.69
2023-01-06T04:19:22.096Z,95195.91
2023-01-06T04:20:25.087Z,95196.72
2023-01-06T04:21:21.996Z,95208.22
2023-01-06T04:22:18.794Z,95098.81
2023-01-06T04:23:15.922Z,95192.44
2023-01-06T04:24:12.723Z,95109.53
2023-01-06T04:25:10.215Z,95163.69
2023-01-06T04:26:07.223Z,95203.97
2023-01-06T04:27:04.057Z,95165.72
2023-01-06T04:28:00.831Z,95208.66
2023-01-06T04:28:57.753Z,95079.91
2023-01-06T04:29:54.638Z,95163.53
2023-01-06T04:30:51.458Z,95216.31
2023-01-06T04:31:49.556Z,95201.53
2023-01-06T04:32:46.583Z,95213.41
2023-01-06T04:33:43.553Z,95150.09
2023-01-06T04:34:40.309Z,95178.66
2023-01-06T04:35:38.981Z,95129.53
2023-01-06T04:36:35.761Z,95176.66
2023-01-06T04:37:32.937Z,95232.06
2023-01-06T04:38:30.055Z,95219.16
2023-01-06T04:39:26.900Z,95096.66
2023-01-06T04:40:23.660Z,95235.09
2023-01-06T04:41:20.662Z,95047.09
2023-01-06T04:42:17.575Z,94830.63
2023-01-06T04:43:16.317Z,95227.22
2023-01-06T04:44:13.163Z,95263.19
2023-01-06T04:45:10.300Z,95117.03
2023-01-06T04:46:07.521Z,95112.81
2023-01-06T04:47:04.396Z,95123.16
2023-01-06T04:48:01.152Z,95210.69
2023-01-06T04:48:57.946Z,95225.63
2023-01-06T04:49:54.743Z,95144.34
2023-01-06T04:51:03.001Z,95160.88
2023-01-06T04:51:59.825Z,95219.16
2023-01-06T04:52:56.783Z,95233.91
2023-01-06T04:53:53.686Z,95225.19
2023-01-06T04:54:50.562Z,95050.16
2023-01-06T04:55:47.346Z,95198.56
2023-01-06T04:56:44.406Z,95273.31
2023-01-06T04:57:41.323Z,95095.00
2023-01-06T04:58:39.198Z,95221.56
2023-01-06T04:59:36.159Z,95071.13
2023-01-06T05:00:33.101Z,95223.19
2023-01-06T05:01:30.114Z,95231.72
2023-01-06T05:02:27.002Z,95253.91
2023-01-06T05:03:23.805Z,95250.91
2023-01-06T05:04:20.894Z,95277.16
2023-01-06T05:05:17.985Z,95096.72
2023-01-06T05:06:15.623Z,95167.59
2023-01-06T05:07:12.394Z,95188.00
2023-01-06T05:08:09.361Z,95249.09
2023-01-06T05:09:07.214Z,95204.19
2023-01-06T05:10:05.901Z,95061.50
2023-01-06T05:11:14.869Z,95238.78
2023-01-06T05:12:11.752Z,95240.56
2023-01-06T05:13:08.541Z,94923.22
2023-01-06T05:14:05.457Z,95236.50
2023-01-06T05:15:02.810Z,95101.03
2023-01-06T05:15:59.656Z,95239.75
2023-01-06T05:16:56.501Z,95227.16
2023-01-06T05:17:53.394Z,95203.28
2023-01-06T05:18:50.212Z,95127.97
2023-01-06T05:19:47.006Z,95062.13
2023-01-06T05:20:43.933Z,95217.47
2023-01-06T05:21:40.707Z,95157.97
2023-01-06T05:22:37.655Z,95259.16
2023-01-06T05:23:36.058Z,95253.25
2023-01-06T05:24:33.004Z,95179.28
2023-01-06T05:25:29.775Z,95200.44
2023-01-06T05:26:28.277Z,95234.38
2023-01-06T05:27:25.126Z,95225.47
2023-01-06T05:28:22.146Z,95240.03
2023-01-06T05:29:18.906Z,95247.38
2023-01-06T05:30:15.732Z,95135.13
2023-01-06T05:31:12.636Z,95185.09
2023-01-06T05:32:09.474Z,95228.78
2023-01-06T05:33:06.321Z,95218.59
2023-01-06T05:34:03.097Z,95267.53
2023-01-06T05:34:59.948Z,95178.97
2023-01-06T05:36:00.604Z,95200.66
2023-01-06T05:36:58.188Z,95233.03
2023-01-06T05:37:55.344Z,95265.19
2023-01-06T05:38:54.569Z,95220.56
2023-01-06T05:39:51.557Z,95188.25
2023-01-06T05:40:51.814Z,95259.84
2023-01-06T05:41:48.696Z,95264.53
2023-01-06T05:42:45.667Z,95063.69
2023-01-06T05:43:42.470Z,95151.81
2023-01-06T05:44:39.327Z,95270.94
2023-01-06T05:45:37.235Z,95104.06
2023-01-06T05:46:34.104Z,95295.66
2023-01-06T05:47:30.903Z,95233.63
2023-01-06T05:48:27.992Z,95268.84
2023-01-06T05:49:24.965Z,95275.34
2023-01-06T05:50:21.786Z,95281.31
2023-01-06T05:51:18.785Z,95268.06
2023-01-06T05:52:15.567Z,95153.78
2023-01-06T05:53:12.958Z,95212.22
2023-01-06T05:54:10.317Z,95291.13
2023-01-06T05:55:07.786Z,95111.50
2023-01-06T05:56:07.214Z,95289.91
2023-01-06T05:57:04.187Z,95218.72
2023-01-06T05:58:00.983Z,95282.25
2023-01-06T05:58:58.151Z,95214.44
2023-01-06T05:59:54.927Z,95289.94
2023-01-06T06:00:51.749Z,95238.16
2023-01-06T06:01:48.661Z,95228.63
2023-01-06T06:02:45.573Z,95289.09
2023-01-06T06:03:42.519Z,95221.25
2023-01-06T06:04:39.445Z,95303.56
2023-01-06T06:05:36.255Z,95304.72
2023-01-06T06:06:33.232Z,95317.91
2023-01-06T06:07:30.102Z,95204.06
2023-01-06T06:08:29.223Z,95271.19
2023-01-06T06:09:28.732Z,95211.72
2023-01-06T06:10:25.487Z,94950.94
2023-01-06T06:11:22.600Z,95142.19
2023-01-06T06:12:19.449Z,95288.19
2023-01-06T06:13:16.306Z,95298.75
2023-01-06T06:14:13.226Z,95304.75
2023-01-06T06:15:10.200Z,95172.50
2023-01-06T06:16:13.345Z,95115.09
2023-01-06T06:17:10.144Z,95287.34
2023-01-06T06:18:06.931Z,95128.38
2023-01-06T06:19:03.717Z,95271.06
2023-01-06T06:20:00.626Z,95289.78
2023-01-06T06:21:04.037Z,95309.97
2023-01-06T06:22:00.854Z,95187.81
2023-01-06T06:22:57.726Z,95191.34
2023-01-06T06:23:56.692Z,95270.16
2023-01-06T06:24:53.483Z,95285.50
2023-01-06T06:25:50.506Z,95090.34
2023-01-06T06:26:47.490Z,95269.50
2023-01-06T06:27:44.338Z,95216.09
2023-01-06T06:28:42.409Z,95235.91
2023-01-06T06:29:39.312Z,95234.66
2023-01-06T06:30:36.163Z,95300.31
2023-01-06T06:31:34.097Z,95224.22
2023-01-06T06:32:31.220Z,95165.16
2023-01-06T06:33:30.879Z,95292.59
2023-01-06T06:34:27.690Z,95228.44
2023-01-06T06:35:24.434Z,95300.13
2023-01-06T06:36:22.007Z,95298.69
2023-01-06T06:37:18.716Z,95306.78
2023-01-06T06:38:15.816Z,95283.72
2023-01-06T06:39:12.695Z,94969.94
2023-01-06T06:40:10.044Z,95201.22
2023-01-06T06:41:07.209Z,95314.31
2023-01-06T06:42:04.305Z,95260.69
2023-01-06T06:43:01.083Z,95273.72
2023-01-06T06:43:58.107Z,95283.75
2023-01-06T06:44:57.731Z,95206.47
2023-01-06T06:45:54.831Z,95293.13
2023-01-06T06:46:51.713Z,95270.03
2023-01-06T06:47:48.495Z,95304.19
2023-01-06T06:48:45.764Z,94995.47
2023-01-06T06:49:42.650Z,95218.59
2023-01-06T06:50:39.826Z,95220.56
2023-01-06T06:51:36.996Z,95268.84
2023-01-06T06:52:33.885Z,95304.28
2023-01-06T06:53:30.790Z,95263.41
2023-01-06T06:54:27.607Z,95320.25
2023-01-06T06:55:24.368Z,95275.97
2023-01-06T06:56:21.678Z,95153.97
2023-01-06T06:57:18.517Z,95322.03
2023-01-06T06:58:15.359Z,95338.44
2023-01-06T06:59:12.172Z,95328.75
2023-01-06T07:00:09.871Z,95317.63
2023-01-06T07:01:12.835Z,95278.19
2023-01-06T07:02:09.851Z,95318.66
2023-01-06T07:03:06.673Z,95338.69
2023-01-06T07:04:03.539Z,95322.09
2023-01-06T07:05:00.321Z,95275.38
2023-01-06T07:05:57.595Z,95330.41
2023-01-06T07:06:54.443Z,95265.25
2023-01-06T07:07:51.490Z,95340.91
2023-01-06T07:08:50.380Z,95319.06
2023-01-06T07:09:48.397Z,95329.13
2023-01-06T07:10:45.240Z,95350.00
2023-01-06T07:11:42.010Z,95323.50
2023-01-06T07:12:38.857Z,95340.69
2023-01-06T07:13:35.767Z,95128.91
2023-01-06T07:14:32.605Z,95317.44
2023-01-06T07:15:29.546Z,95343.69
2023-01-06T07:16:26.850Z,95182.25
2023-01-06T07:17:28.095Z,95332.00
2023-01-06T07:18:24.917Z,95339.69
2023-01-06T07:19:21.778Z,95141.84
2023-01-06T07:20:18.654Z,95119.75
2023-01-06T07:21:15.475Z,95312.00
2023-01-06T07:22:12.295Z,95322.69
2023-01-06T07:23:09.192Z,95330.38
2023-01-06T07:24:06.498Z,95259.47
2023-01-06T07:25:03.495Z,95282.25
2023-01-06T07:26:02.237Z,95283.44
2023-01-06T07:26:59.054Z,95325.81
2023-01-06T07:28:05.589Z,95303.66
2023-01-06T07:29:02.577Z,95302.47
2023-01-06T07:29:59.339Z,95329.25
2023-01-06T07:30:56.246Z,95255.56
2023-01-06T07:31:53.080Z,95314.69
2023-01-06T07:32:50.691Z,95212.31
2023-01-06T07:33:47.569Z,95291.53
2023-01-06T07:34:44.505Z,95252.75
2023-01-06T07:35:41.582Z,95245.47
2023-01-06T07:36:38.557Z,95268.88
2023-01-06T07:37:35.351Z,95132.16
2023-01-06T07:38:32.337Z,95376.97
2023-01-06T07:39:29.167Z,95360.19
2023-01-06T07:40:25.968Z,95351.31
2023-01-06T07:41:23.005Z,95336.53
2023-01-06T07:42:19.762Z,95377.41
2023-01-06T07:43:19.761Z,95365.28
2023-01-06T07:44:17.965Z,95353.53
2023-01-06T07:45:14.923Z,95280.81
2023-01-06T07:46:15.287Z,95243.56
2023-01-06T07:47:12.184Z,95187.75
2023-01-06T07:48:09.370Z,95367.28
2023-01-06T07:49:06.097Z,95372.09
2023-01-06T07:50:12.832Z,95199.47
2023-01-06T07:51:17.131Z,95320.28
2023-01-06T07:52:14.184Z,95378.84
2023-01-06T07:53:29.927Z,95383.66
2023-01-06T07:54:32.054Z,95301.66
2023-01-06T07:55:30.167Z,95299.66
2023-01-06T07:56:27.130Z,95337.75
2023-01-06T07:57:23.948Z,95280.81
2023-01-06T07:58:24.134Z,95329.03
2023-01-06T07:59:20.966Z,95391.81
2023-01-06T08:00:17.907Z,95390.34
2023-01-06T08:01:15.318Z,95311.03
2023-01-06T08:02:12.435Z,95380.66
2023-01-06T08:03:11.653Z,95400.50
2023-01-06T08:04:08.445Z,95333.28
2023-01-06T08:05:05.659Z,95384.31
2023-01-06T08:06:08.059Z,95268.94
2023-01-06T08:07:04.954Z,95293.44
2023-01-06T08:08:01.798Z,95367.06
2023-01-06T08:08:58.605Z,95350.88
2023-01-06T08:09:55.434Z,95348.25
2023-01-06T08:10:52.208Z,95396.47
2023-01-06T08:11:49.125Z,95275.81
2023-01-06T08:12:45.930Z,95377.44
2023-01-06T08:13:42.751Z,95208.81
2023-01-06T08:14:39.711Z,95155.66
2023-01-06T08:15:38.226Z,95408.19
2023-01-06T08:16:35.062Z,95293.03
2023-01-06T08:17:31.876Z,95266.50
2023-01-06T08:18:28.717Z,95436.53
2023-01-06T08:19:25.641Z,95328.44
2023-01-06T08:20:23.867Z,95364.47
2023-01-06T08:21:20.675Z,95410.63
2023-01-06T08:22:17.539Z,95381.06
2023-01-06T08:23:14.346Z,95383.88
2023-01-06T08:24:11.339Z,95405.75
2023-01-06T08:25:08.686Z,95395.84
2023-01-06T08:26:06.834Z,95409.00
2023-01-06T08:27:03.799Z,95286.69
2023-01-06T08:28:00.675Z,95331.06
2023-01-06T08:28:57.479Z,95408.59
2023-01-06T08:29:55.384Z,95368.91
2023-01-06T08:30:52.935Z,95436.53
2023-01-06T08:31:54.732Z,95279.22
2023-01-06T08:32:57.838Z,95349.06
2023-01-06T08:33:54.698Z,95334.50
2023-01-06T08:34:51.488Z,95412.22
2023-01-06T08:35:48.262Z,95394.44
2023-01-06T08:36:45.698Z,95332.88
2023-01-06T08:37:42.996Z,95398.06
2023-01-06T08:38:40.945Z,95413.06
2023-01-06T08:39:37.866Z,95398.06
2023-01-06T08:40:34.749Z,95362.84
2023-01-06T08:41:31.567Z,95421.16
2023-01-06T08:42:28.391Z,95332.06
2023-01-06T08:43:26.149Z,95369.13
2023-01-06T08:44:23.070Z,95326.22
2023-01-06T08:45:19.904Z,95450.72
2023-01-06T08:46:19.855Z,95404.97
2023-01-06T08:47:16.814Z,95420.75
2023-01-06T08:48:13.841Z,95341.78
2023-01-06T08:49:10.671Z,95391.75
2023-01-06T08:50:07.817Z,95387.50
2023-01-06T08:51:14.329Z,95374.94
2023-01-06T08:52:14.487Z,95327.00
2023-01-06T08:53:15.464Z,95390.34
2023-01-06T08:54:12.586Z,95401.09
2023-01-06T08:55:12.280Z,95371.75
2023-01-06T08:56:17.263Z,95400.91
2023-01-06T08:57:18.958Z,95297.69
2023-01-06T08:58:15.890Z,95416.47
2023-01-06T08:59:18.428Z,95408.59
2023-01-06T09:00:21.311Z,95356.97
2023-01-06T09:01:21.215Z,95344.63
2023-01-06T09:02:18.192Z,95251.91
2023-01-06T09:03:15.020Z,95416.28
2023-01-06T09:04:12.959Z,95329.66
2023-01-06T09:05:09.910Z,95394.44
2023-01-06T09:06:06.915Z,95392.41
2023-01-06T09:07:04.145Z,95347.25
2023-01-06T09:08:01.268Z,95411.41
2023-01-06T09:09:01.296Z,95324.13
2023-01-06T09:09:58.155Z,95405.56
2023-01-06T09:10:55.116Z,95338.97
2023-01-06T09:11:52.183Z,95400.91
2023-01-06T09:12:49.663Z,95347.06
2023-01-06T09:13:46.915Z,95333.47
2023-01-06T09:14:43.711Z,95395.03
2023-01-06T09:15:45.011Z,95371.56
2023-01-06T09:16:42.971Z,95353.94
2023-01-06T09:17:39.827Z,95407.38
2023-01-06T09:18:37.631Z,95388.34
2023-01-06T09:19:34.378Z,95407.38
2023-01-06T09:20:31.248Z,95400.06
2023-01-06T09:21:28.127Z,95242.09
2023-01-06T09:22:25.052Z,95385.91
2023-01-06T09:23:23.592Z,95380.84
2023-01-06T09:24:20.436Z,95368.47
2023-01-06T09:25:18.378Z,95375.53
2023-01-06T09:26:17.362Z,95058.72
2023-01-06T09:27:14.863Z,95226.47
2023-01-06T09:28:11.630Z,95281.03
2023-01-06T09:29:08.416Z,95301.50
2023-01-06T09:30:05.820Z,95368.47
2023-01-06T09:31:02.763Z,95335.28
2023-01-06T09:31:59.679Z,95271.78
2023-01-06T09:32:56.611Z,95317.06
2023-01-06T09:33:53.879Z,95396.25
2023-01-06T09:34:50.635Z,95369.28
2023-01-06T09:35:47.512Z,95318.31
2023-01-06T09:36:47.061Z,95328.00
2023-01-06T09:37:44.059Z,95364.38
2023-01-06T09:38:43.518Z,95225.66
2023-01-06T09:39:43.309Z,95345.69
2023-01-06T09:40:46.143Z,95358.28
2023-01-06T09:42:01.656Z,95356.91
2023-01-06T09:43:04.240Z,95358.28
2023-01-06T09:44:19.327Z,95355.88
2023-01-06T09:45:26.933Z,95366.88
2023-01-06T09:46:31.449Z,95294.00
2023-01-06T09:47:40.892Z,95351.19
2023-01-06T09:49:00.334Z,95364.31
2023-01-06T09:50:20.921Z,95383.75
2023-01-06T09:51:26.273Z,95290.91
2023-01-06T09:52:33.830Z,95342.41
2023-01-06T09:53:51.422Z,95355.91
2023-01-06T09:54:57.459Z,95357.09
2023-01-06T09:56:00.621Z,95352.59
2023-01-06T09:57:11.673Z,95364.16
2023-01-06T09:58:16.102Z,95343.69
2023-01-06T09:59:40.785Z,95352.84
2023-01-06T10:00:53.547Z,95194.69
2023-01-06T10:01:51.338Z,95339.50
2023-01-06T10:02:48.407Z,95317.84
2023-01-06T10:03:48.137Z,95315.03
2023-01-06T10:04:44.995Z,95340.91
2023-01-06T10:05:58.191Z,95327.09
2023-01-06T10:07:19.111Z,95327.16
2023-01-06T10:08:36.201Z,95325.31
2023-01-06T10:10:07.566Z,95322.69
2023-01-06T10:11:33.661Z,95319.50
2023-01-06T10:13:04.396Z,95284.31
2023-01-06T10:14:28.976Z,95314.19
2023-01-06T10:15:53.270Z,95241.97
2023-01-06T10:17:08.329Z,95307.66
2023-01-06T10:18:22.722Z,95334.78
2023-01-06T10:19:29.863Z,95216.50
2023-01-06T10:20:45.300Z,95303.69
2023-01-06T10:22:12.359Z,95281.31
2023-01-06T10:23:28.415Z,95302.66
2023-01-06T10:24:39.342Z,95332.19
2023-01-06T10:25:50.381Z,95319.81
2023-01-06T10:27:27.189Z,95113.06
2023-01-06T10:28:42.565Z,95325.69
2023-01-06T10:29:42.354Z,95240.53
2023-01-06T10:30:50.519Z,95281.94
2023-01-06T10:31:51.523Z,95324.50
2023-01-06T10:32:50.506Z,95256.59
2023-01-06T10:33:57.054Z,95244.44
2023-01-06T10:34:56.260Z,95259.00
2023-01-06T10:35:56.151Z,95299.38
2023-01-06T10:37:10.063Z,95296.75
2023-01-06T10:38:13.622Z,95260.72
2023-01-06T10:39:25.409Z,95298.09
2023-01-06T10:40:29.534Z,95275.28
2023-01-06T10:42:15.577Z,95317.00
2023-01-06T10:43:22.550Z,95275.88
2023-01-06T10:44:20.687Z,95308.44
2023-01-06T10:45:17.867Z,95304.16
2023-01-06T10:46:16.753Z,95308.41
2023-01-06T10:47:31.125Z,95327.47
2023-01-06T10:48:32.714Z,95289.88
2023-01-06T10:49:29.544Z,95281.81
2023-01-06T10:50:27.167Z,95230.28
2023-01-06T10:51:38.447Z,95306.25
2023-01-06T10:52:36.387Z,95271.66
2023-01-06T10:53:33.311Z,95322.22
2023-01-06T10:54:34.357Z,95325.28
2023-01-06T10:55:31.956Z,95298.09
2023-01-06T10:56:30.774Z,95217.88
2023-01-06T10:57:33.883Z,95160.56
2023-01-06T10:58:37.382Z,95298.81
2023-01-06T10:59:34.190Z,95232.94
2023-01-06T11:00:32.318Z,95321.88
2023-01-06T11:01:34.766Z,95304.69
2023-01-06T11:02:31.873Z,95289.13
2023-01-06T11:03:34.070Z,95220.97
2023-01-06T11:04:34.313Z,95213.03
2023-01-06T11:05:34.436Z,95290.25
2023-01-06T11:06:35.582Z,95221.13
2023-01-06T11:07:34.275Z,95094.84
2023-01-06T11:08:35.580Z,94946.06
2023-01-06T11:09:41.384Z,95275.81
2023-01-06T11:11:16.627Z,95238.25
2023-01-06T11:12:30.607Z,95268.19
2023-01-06T11:13:40.187Z,95187.09
2023-01-06T11:14:37.661Z,95136.16
2023-01-06T11:15:42.048Z,95149.84
2023-01-06T11:16:39.621Z,95248.78
2023-01-06T11:17:36.683Z,95288.69
2023-01-06T11:18:39.342Z,95270.66
2023-01-06T11:19:44.001Z,95275.31
2023-01-06T11:20:41.457Z,95282.75
2023-01-06T11:21:40.423Z,95260.13
2023-01-06T11:22:39.390Z,95083.38
2023-01-06T11:23:41.054Z,95303.41
2023-01-06T11:24:51.789Z,95285.59
2023-01-06T11:26:13.651Z,95295.13
2023-01-06T11:27:19.854Z,95177.00
2023-01-06T11:28:20.118Z,95296.13
2023-01-06T11:29:25.031Z,95298.91
2023-01-06T11:30:25.793Z,95288.19
2023-01-06T11:31:28.403Z,95295.75
2023-01-06T11:32:31.467Z,95183.03
2023-01-06T11:33:38.140Z,95305.63
2023-01-06T11:34:35.079Z,95284.09
2023-01-06T11:35:33.884Z,95301.13
2023-01-06T11:36:33.792Z,95295.06
2023-01-06T11:37:33.448Z,95253.66
2023-01-06T11:38:33.232Z,95256.44
2023-01-06T11:39:36.816Z,95300.25
2023-01-06T11:40:37.552Z,95291.78
2023-01-06T11:41:41.100Z,95285.16
2023-01-06T11:43:50.512Z,95266.84
2023-01-06T11:44:51.631Z,95212.63
2023-01-06T11:45:57.449Z,95155.31
2023-01-06T11:47:10.344Z,95291.75
2023-01-06T11:48:30.138Z,95177.88
2023-01-06T11:49:34.294Z,95184.81
2023-01-06T11:50:32.373Z,95203.81
2023-01-06T11:51:48.212Z,95240.59
2023-01-06T11:53:02.263Z,95289.91
2023-01-06T11:54:02.584Z,95315.41
2023-01-06T11:55:08.697Z,95303.44
2023-01-06T11:56:18.174Z,95291.72
2023-01-06T11:57:32.619Z,95283.00
2023-01-06T11:58:29.356Z,95282.69
2023-01-06T11:59:38.956Z,95226.75
2023-01-06T12:01:00.172Z,95274.47
2023-01-06T12:02:03.794Z,95317.59
2023-01-06T12:03:22.230Z,95280.97